Time;durP1;ratioP1;P1;durP2;ratioP2;P2;SDS_P1;SDS_P2;PMS_P1;PMS_P2;Temp;Humidity;BMP_temperature;BMP_pressure;BME280_temperature;BME280_humidity;BME280_pressure;Samples;Min_cycle;Max_cycle;Signal;HPM_P1;HPM_P2
2021/04/02 00:02:30;;;;;;;5.00;4.50;;;3.50;84.60;;;;;;5053870;28;20154;-87
2021/04/02 00:05:04;;;;;;;7.53;4.80;;;3.30;84.60;;;;;;5053802;28;20184;-86
2021/04/02 00:07:34;;;;;;;5.73;5.03;;;3.20;85.10;;;;;;5054013;28;20247;-85
2021/04/02 00:10:07;;;;;;;5.60;5.10;;;3.10;85.30;;;;;;5035713;28;20207;-86
2021/04/02 00:12:37;;;;;;;4.87;4.37;;;3.10;85.20;;;;;;5053614;28;20277;-87
2021/04/02 00:15:20;;;;;;;5.63;5.00;;;3.10;85.00;;;;;;5053582;28;20201;-87
2021/04/02 00:17:54;;;;;;;139.63;9.47;;;3.10;84.60;;;;;;5053559;28;20635;-87
2021/04/02 00:20:24;;;;;;;132.63;12.43;;;2.90;85.60;;;;;;5035742;28;20214;-86
2021/04/02 00:22:52;;;;;;;62.93;3.93;;;2.70;86.50;;;;;;5053382;28;20593;-85
2021/04/02 00:25:26;;;;;;;33.93;2.80;;;2.50;87.40;;;;;;5052982;28;20643;-86
2021/04/02 00:28:00;;;;;;;50.70;3.87;;;2.20;88.10;;;;;;5035651;28;20702;-86
2021/04/02 00:30:36;;;;;;;11.10;2.00;;;1.80;88.80;;;;;;5053278;28;20242;-86
2021/04/02 00:33:13;;;;;;;29.23;2.83;;;1.60;89.50;;;;;;5035526;28;20182;-86
2021/04/02 00:35:45;;;;;;;34.30;2.80;;;1.50;90.00;;;;;;5035258;28;20203;-86
2021/04/02 00:38:24;;;;;;;10.23;2.97;;;1.50;90.30;;;;;;5053247;28;20587;-86
2021/04/02 00:40:59;;;;;;;4.00;3.60;;;1.70;90.50;;;;;;5053136;28;20196;-86
2021/04/02 00:43:28;;;;;;;4.07;3.57;;;1.80;90.50;;;;;;5035815;28;20178;-86
2021/04/02 00:46:00;;;;;;;4.10;3.57;;;1.90;90.30;;;;;;5053162;28;20647;-86
2021/04/02 00:48:33;;;;;;;9.20;3.60;;;2.00;90.00;;;;;;5035212;28;20272;-86
2021/04/02 00:51:06;;;;;;;5.17;3.60;;;2.10;89.80;;;;;;5053047;28;20199;-86
2021/04/02 00:53:41;;;;;;;16.30;3.27;;;2.00;89.60;;;;;;5053020;28;20230;-86
2021/04/02 00:56:14;;;;;;;29.80;3.70;;;2.10;89.40;;;;;;5035107;28;20204;-86
2021/04/02 00:58:43;;;;;;;13.77;4.43;;;2.10;89.00;;;;;;5035261;28;20184;-86
2021/04/02 01:01:20;;;;;;;4.67;4.07;;;2.10;88.50;;;;;;5034955;28;20197;-86
2021/04/02 01:03:54;;;;;;;5.10;4.53;;;2.00;88.50;;;;;;5052914;28;20204;-86
2021/04/02 01:06:26;;;;;;;12.40;4.63;;;2.00;88.40;;;;;;5053250;28;20172;-86
2021/04/02 01:08:56;;;;;;;6.67;5.00;;;2.00;88.40;;;;;;5052866;28;20561;-86
2021/04/02 01:11:26;;;;;;;5.33;4.60;;;2.10;88.40;;;;;;5035041;28;20188;-86
2021/04/02 01:14:04;;;;;;;4.53;4.07;;;2.00;88.10;;;;;;5034843;28;20564;-86
2021/04/02 01:16:44;;;;;;;5.30;4.40;;;2.00;87.90;;;;;;5052731;28;20631;-86
2021/04/02 01:19:34;;;;;;;5.80;4.87;;;2.10;87.70;;;;;;5052652;28;20244;-86
2021/04/02 01:22:16;;;;;;;13.67;4.90;;;2.00;87.40;;;;;;5034866;28;20179;-86
2021/04/02 01:25:01;;;;;;;46.30;5.07;;;2.00;87.40;;;;;;5052775;28;20215;-86
2021/04/02 01:27:54;;;;;;;55.63;5.67;;;1.90;87.50;;;;;;5035011;28;20172;-86
2021/04/02 01:30:30;;;;;;;31.43;5.17;;;1.60;87.90;;;;;;5052654;28;20196;-86
2021/04/02 01:33:00;;;;;;;12.20;4.10;;;1.50;88.50;;;;;;5034728;28;20171;-86
2021/04/02 01:35:38;;;;;;;19.20;4.50;;;1.30;88.80;;;;;;5034805;28;20287;-86
2021/04/02 01:38:32;;;;;;;28.93;5.13;;;1.00;89.40;;;;;;5038742;28;20176;-86
2021/04/02 01:41:06;;;;;;;23.50;6.70;;;0.90;89.70;;;;;;5056485;28;20211;-86
2021/04/02 01:43:44;;;;;;;7.97;6.00;;;0.90;89.80;;;;;;5056369;28;20184;-85
2021/04/02 01:46:19;;;;;;;12.43;6.37;;;1.00;90.00;;;;;;5056452;28;20180;-86
2021/04/02 01:48:58;;;;;;;10.87;7.27;;;1.20;90.20;;;;;;5056439;28;20163;-86
2021/04/02 01:51:25;;;;;;;7.20;5.57;;;1.20;90.00;;;;;;5038423;28;20204;-86
2021/04/02 01:54:02;;;;;;;6.73;5.93;;;1.30;89.90;;;;;;5038501;28;20177;-86
2021/04/02 01:56:32;;;;;;;27.37;5.80;;;1.30;89.70;;;;;;5038339;28;20207;-86
2021/04/02 01:59:06;;;;;;;29.00;5.20;;;1.30;89.40;;;;;;5056163;28;20180;-85
2021/04/02 02:01:44;;;;;;;21.73;4.73;;;1.00;89.20;;;;;;5038243;28;20510;-86
2021/04/02 02:04:18;;;;;;;12.30;5.27;;;0.70;89.50;;;;;;5056414;28;20167;-85
2021/04/02 02:06:49;;;;;;;7.83;5.30;;;0.50;90.00;;;;;;5056045;28;20171;-85
2021/04/02 02:09:35;;;;;;;17.67;5.93;;;0.30;90.50;;;;;;5038115;28;20200;-85
2021/04/02 02:12:04;;;;;;;15.00;5.93;;;0.30;90.80;;;;;;5055978;28;20522;-85
2021/04/02 02:14:39;;;;;;;16.27;7.20;;;0.20;91.20;;;;;;5037997;28;20184;-85
2021/04/02 02:17:12;;;;;;;19.57;7.63;;;0.30;91.50;;;;;;5055808;28;20203;-86
2021/04/02 02:19:47;;;;;;;43.87;7.97;;;0.30;91.60;;;;;;5143776;22;20230;-81
2021/04/02 02:22:18;;;;;;;13.20;7.93;;;0.40;91.80;;;;;;5056388;28;20168;-80
2021/04/02 02:24:51;;;;;;;24.13;8.10;;;0.60;91.80;;;;;;5056546;28;20160;-80
2021/04/02 02:27:23;;;;;;;59.97;8.20;;;0.70;91.90;;;;;;5056264;28;20639;-80
2021/04/02 02:29:58;;;;;;;11.27;9.07;;;0.80;91.80;;;;;;5038160;28;20203;-80
2021/04/02 02:32:32;;;;;;;37.93;8.93;;;0.90;91.70;;;;;;5056091;28;20171;-80
2021/04/02 02:34:58;;;;;;;10.50;8.70;;;1.00;91.70;;;;;;5055844;28;20178;-81
2021/04/02 02:37:28;;;;;;;58.53;9.53;;;1.10;91.60;;;;;;5037924;28;20279;-80
2021/04/02 02:40:01;;;;;;;68.90;10.37;;;1.20;91.50;;;;;;5055753;28;20664;-80
2021/04/02 02:42:34;;;;;;;78.70;10.37;;;1.20;91.40;;;;;;5055806;28;20164;-80
2021/04/02 02:45:09;;;;;;;68.60;10.53;;;1.30;91.50;;;;;;5038043;28;20675;-81
2021/04/02 02:47:37;;;;;;;143.80;14.73;;;1.40;91.50;;;;;;5055466;28;20736;-82
2021/04/02 02:50:15;;;;;;;140.40;14.20;;;1.50;91.70;;;;;;5055822;28;20192;-80
2021/04/02 02:52:48;;;;;;;151.33;14.10;;;1.60;91.90;;;;;;5055775;28;20186;-80
2021/04/02 02:55:24;;;;;;;97.83;12.17;;;1.60;92.00;;;;;;5055879;28;20219;-80
2021/04/02 02:57:57;;;;;;;94.87;13.20;;;1.70;92.00;;;;;;5037889;28;20186;-80
2021/04/02 03:00:36;;;;;;;133.50;16.53;;;1.70;92.30;;;;;;5055442;28;20652;-80
2021/04/02 03:03:18;;;;;;;181.93;17.37;;;1.80;92.50;;;;;;5055323;28;20659;-80
2021/04/02 03:05:58;;;;;;;184.30;20.90;;;1.80;92.90;;;;;;5037659;28;20180;-80
2021/04/02 03:08:40;;;;;;;126.30;16.23;;;1.80;93.00;;;;;;5037727;28;20267;-81
2021/04/02 03:11:14;;;;;;;92.63;15.47;;;1.90;93.20;;;;;;5037488;28;20286;-80
2021/04/02 03:13:41;;;;;;;140.83;16.67;;;1.90;93.40;;;;;;5055351;28;20171;-81
2021/04/02 03:16:17;;;;;;;76.67;15.43;;;2.00;93.40;;;;;;5055378;28;20347;-80
2021/04/02 03:18:48;;;;;;;56.70;14.20;;;2.10;93.30;;;;;;5055162;28;20157;-81
2021/04/02 03:21:20;;;;;;;153.90;16.30;;;2.20;93.40;;;;;;5055360;28;20219;-80
2021/04/02 03:23:57;;;;;;;120.17;15.87;;;2.20;93.30;;;;;;5055146;28;20169;-81
2021/04/02 03:26:34;;;;;;;71.77;16.20;;;2.20;93.30;;;;;;5054895;28;20169;-80
2021/04/02 03:29:05;;;;;;;21.97;14.27;;;2.30;93.30;;;;;;5054903;28;20184;-81
2021/04/02 03:31:43;;;;;;;19.80;14.07;;;2.30;93.20;;;;;;5054921;28;20214;-80
2021/04/02 03:34:14;;;;;;;17.20;15.03;;;2.30;93.10;;;;;;5037856;28;20640;-83
2021/04/02 03:36:44;;;;;;;23.23;14.60;;;2.20;93.10;;;;;;5036907;28;20218;-80
2021/04/02 03:39:22;;;;;;;15.90;13.67;;;2.20;93.00;;;;;;5036944;28;20678;-79
2021/04/02 03:41:58;;;;;;;14.70;12.90;;;2.30;92.90;;;;;;5055097;28;20184;-79
2021/04/02 03:44:34;;;;;;;14.23;11.47;;;2.30;92.70;;;;;;5054543;28;20172;-80
2021/04/02 03:47:19;;;;;;;14.67;10.00;;;2.20;92.60;;;;;;5054732;28;20190;-79
2021/04/02 03:49:57;;;;;;;14.47;8.50;;;2.30;92.40;;;;;;5054477;28;20200;-79
2021/04/02 03:52:30;;;;;;;11.13;7.63;;;2.30;92.20;;;;;;5055073;28;20157;-80
2021/04/02 03:55:02;;;;;;;9.23;6.70;;;2.30;91.90;;;;;;5054965;28;20531;-80
2021/04/02 03:57:39;;;;;;;8.00;5.63;;;2.40;91.40;;;;;;5036636;28;20176;-80
2021/04/02 04:00:20;;;;;;;9.93;5.93;;;2.40;91.00;;;;;;5053613;28;20196;-80
2021/04/02 04:02:51;;;;;;;7.43;5.07;;;2.50;90.20;;;;;;5054723;28;20239;-80
2021/04/02 04:05:26;;;;;;;7.23;4.57;;;2.50;89.30;;;;;;5036439;28;20219;-80
2021/04/02 04:07:56;;;;;;;7.73;4.53;;;2.40;88.90;;;;;;5054577;28;20198;-79
2021/04/02 04:10:29;;;;;;;8.10;5.17;;;2.40;89.00;;;;;;5054345;28;20188;-79
2021/04/02 04:13:06;;;;;;;7.53;5.20;;;2.30;89.20;;;;;;5054227;28;20225;-79
2021/04/02 04:15:41;;;;;;;14.73;5.47;;;2.40;89.10;;;;;;5054090;28;20203;-80
2021/04/02 04:18:13;;;;;;;11.67;5.33;;;2.40;88.90;;;;;;5054505;28;20196;-81
2021/04/02 04:20:53;;;;;;;11.07;4.97;;;2.30;88.90;;;;;;5053945;28;20203;-79
2021/04/02 04:23:28;;;;;;;9.17;5.03;;;2.30;88.80;;;;;;5054280;28;20260;-79
2021/04/02 04:25:56;;;;;;;15.03;5.30;;;2.30;88.70;;;;;;5053992;28;20176;-81
2021/04/02 04:28:32;;;;;;;14.83;5.90;;;2.30;88.80;;;;;;5053912;28;20180;-80
2021/04/02 04:31:06;;;;;;;11.00;5.83;;;2.20;88.80;;;;;;5035875;28;20208;-80
2021/04/02 04:33:42;;;;;;;11.53;6.87;;;2.30;89.00;;;;;;5053962;28;20179;-80
2021/04/02 04:36:14;;;;;;;14.93;5.90;;;2.30;89.20;;;;;;5054121;28;20188;-80
2021/04/02 04:38:42;;;;;;;11.67;6.70;;;2.40;89.10;;;;;;5053917;28;20172;-80
2021/04/02 04:41:15;;;;;;;14.87;7.17;;;2.40;89.00;;;;;;5053758;28;20253;-80
2021/04/02 04:43:52;;;;;;;10.93;8.00;;;2.40;89.10;;;;;;5054015;28;20202;-80
2021/04/02 04:46:24;;;;;;;13.63;8.27;;;2.50;89.10;;;;;;5053949;28;20174;-80
2021/04/02 04:48:59;;;;;;;15.53;8.40;;;2.40;89.40;;;;;;5053437;28;20263;-80
2021/04/02 04:51:30;;;;;;;18.73;8.57;;;2.30;89.80;;;;;;5053907;28;20202;-80
2021/04/02 04:54:09;;;;;;;12.33;7.93;;;2.30;90.10;;;;;;5053748;28;20162;-80
2021/04/02 04:56:41;;;;;;;13.77;7.77;;;2.30;90.20;;;;;;5035898;28;20618;-80
2021/04/02 04:59:14;;;;;;;12.67;7.47;;;2.30;90.40;;;;;;5053194;28;20240;-80
2021/04/02 05:01:51;;;;;;;13.63;7.77;;;2.30;90.30;;;;;;5053654;28;20172;-80
2021/04/02 05:04:25;;;;;;;14.17;7.20;;;2.30;90.20;;;;;;5053515;28;20161;-80
2021/04/02 05:07:03;;;;;;;19.90;7.13;;;2.40;90.20;;;;;;5053237;28;20589;-79
2021/04/02 05:09:30;;;;;;;11.70;7.33;;;2.30;90.10;;;;;;5035290;28;20578;-80
2021/04/02 05:12:01;;;;;;;14.60;7.37;;;2.30;90.00;;;;;;5039300;28;20239;-82
2021/04/02 05:14:28;;;;;;;15.53;7.27;;;2.40;89.90;;;;;;5039539;28;20555;-80
2021/04/02 05:16:59;;;;;;;16.43;7.63;;;2.40;89.90;;;;;;5057365;28;20706;-80
2021/04/02 05:19:31;;;;;;;15.33;8.07;;;2.50;89.80;;;;;;5057083;28;20723;-81
2021/04/02 05:22:03;;;;;;;15.20;7.70;;;2.50;89.80;;;;;;5039331;28;20187;-81
2021/04/02 05:24:34;;;;;;;14.07;7.40;;;2.50;89.70;;;;;;5039473;28;20252;-80
2021/04/02 05:27:06;;;;;;;15.87;7.80;;;2.50;89.70;;;;;;5057393;28;20211;-81
2021/04/02 05:29:42;;;;;;;12.30;8.17;;;2.50;89.70;;;;;;5039170;28;20209;-80
2021/04/02 05:32:14;;;;;;;14.97;7.33;;;2.60;89.70;;;;;;5057018;28;20178;-81
2021/04/02 05:34:47;;;;;;;13.53;7.13;;;2.60;89.70;;;;;;5056938;28;20657;-80
2021/04/02 05:37:20;;;;;;;15.83;7.93;;;2.60;89.60;;;;;;5038954;28;20187;-80
2021/04/02 05:39:51;;;;;;;9.93;7.43;;;2.70;89.50;;;;;;5057053;28;20195;-80
2021/04/02 05:42:29;;;;;;;15.10;8.37;;;2.80;89.40;;;;;;5038974;28;20171;-80
2021/04/02 05:45:04;;;;;;;16.43;8.10;;;2.90;89.40;;;;;;5056858;28;20243;-79
2021/04/02 05:47:37;;;;;;;10.33;7.60;;;2.90;89.10;;;;;;5056857;28;20208;-81
2021/04/02 05:50:13;;;;;;;15.73;8.63;;;2.90;89.10;;;;;;5038658;28;20576;-80
2021/04/02 05:52:47;;;;;;;15.37;8.63;;;3.00;89.20;;;;;;5038776;28;20648;-80
2021/04/02 05:55:22;;;;;;;14.57;8.03;;;3.00;89.60;;;;;;5056544;28;20697;-80
2021/04/02 05:57:54;;;;;;;17.03;7.53;;;3.10;89.80;;;;;;5038658;28;20264;-81
2021/04/02 06:00:28;;;;;;;20.07;5.33;;;3.20;90.10;;;;;;5039347;28;20197;-80
2021/04/02 06:03:02;;;;;;;19.60;4.43;;;3.50;90.50;;;;;;5056739;28;20665;-80
2021/04/02 06:05:44;;;;;;;18.13;3.87;;;3.80;89.90;;;;;;5057131;28;20164;-79
2021/04/02 06:08:19;;;;;;;15.00;3.60;;;4.00;89.60;;;;;;5056824;28;20171;-80
2021/04/02 06:10:52;;;;;;;14.43;3.67;;;4.10;88.50;;;;;;5038699;28;20198;-80
2021/04/02 06:13:24;;;;;;;22.53;3.77;;;4.30;88.40;;;;;;5038880;28;20198;-80
2021/04/02 06:15:55;;;;;;;19.77;3.43;;;4.30;88.50;;;;;;5038888;28;20336;-80
2021/04/02 06:18:25;;;;;;;19.10;3.03;;;4.40;88.20;;;;;;5056809;28;20152;-80
2021/04/02 06:20:57;;;;;;;18.80;2.83;;;4.40;88.00;;;;;;5056677;28;20253;-80
2021/04/02 06:23:36;;;;;;;17.03;2.97;;;4.40;87.80;;;;;;5055732;28;20199;-80
2021/04/02 06:26:11;;;;;;;15.77;2.80;;;4.40;86.70;;;;;;5056487;28;20233;-80
2021/04/02 06:28:44;;;;;;;14.93;3.43;;;4.50;86.40;;;;;;5056153;28;20173;-80
2021/04/02 06:31:21;;;;;;;15.67;3.47;;;4.50;85.90;;;;;;5056118;28;20198;-80
2021/04/02 06:33:56;;;;;;;15.43;2.83;;;4.50;85.60;;;;;;5056359;28;20181;-80
2021/04/02 06:36:27;;;;;;;22.27;3.53;;;4.50;86.10;;;;;;5056050;28;20207;-80
2021/04/02 06:39:04;;;;;;;18.13;3.97;;;4.60;86.20;;;;;;5056166;28;20172;-80
2021/04/02 06:41:40;;;;;;;17.43;4.43;;;4.70;85.60;;;;;;5038350;28;20192;-80
2021/04/02 06:44:13;;;;;;;12.27;2.80;;;4.70;84.80;;;;;;5038147;28;20222;-79
2021/04/02 06:46:44;;;;;;;25.27;3.77;;;4.80;85.00;;;;;;5038222;28;20178;-81
2021/04/02 06:49:17;;;;;;;12.83;3.20;;;4.90;84.20;;;;;;5055843;28;20657;-81
2021/04/02 06:51:46;;;;;;;15.63;2.80;;;4.90;83.40;;;;;;5056231;28;20168;-81
2021/04/02 06:54:21;;;;;;;15.60;3.50;;;5.00;84.20;;;;;;5038757;28;20258;-80
2021/04/02 06:57:03;;;;;;;17.80;3.07;;;5.00;84.60;;;;;;5055695;28;20252;-80
2021/04/02 06:59:43;;;;;;;12.67;3.07;;;5.00;83.50;;;;;;5055845;28;20227;-80
2021/04/02 07:02:16;;;;;;;13.70;3.53;;;5.10;83.30;;;;;;5055834;28;20160;-80
2021/04/02 07:04:48;;;;;;;20.27;5.07;;;5.10;83.90;;;;;;5037467;28;20654;-83
2021/04/02 07:07:15;;;;;;;28.03;4.40;;;5.10;82.80;;;;;;5037811;28;20659;-80
2021/04/02 07:09:44;;;;;;;13.00;3.30;;;5.20;82.90;;;;;;5037989;28;20605;-82
2021/04/02 07:12:14;;;;;;;26.30;3.47;;;5.20;82.50;;;;;;5037295;28;20550;-79
2021/04/02 07:14:52;;;;;;;15.73;2.90;;;5.20;82.80;;;;;;5055678;28;20228;-80
2021/04/02 07:17:24;;;;;;;17.57;3.60;;;5.20;82.00;;;;;;5037416;28;20183;-80
2021/04/02 07:19:58;;;;;;;17.00;2.83;;;5.30;82.20;;;;;;5037895;28;20200;-80
2021/04/02 07:22:33;;;;;;;15.37;3.37;;;5.30;81.40;;;;;;5055188;28;20171;-80
2021/04/02 07:25:03;;;;;;;15.37;3.40;;;5.30;81.70;;;;;;5055377;28;20155;-80
2021/04/02 07:27:36;;;;;;;20.90;3.67;;;5.40;81.70;;;;;;5037584;28;20274;-80
2021/04/02 07:30:13;;;;;;;15.23;3.23;;;5.40;81.90;;;;;;5055570;28;20241;-81
2021/04/02 07:32:47;;;;;;;22.87;4.83;;;5.50;82.10;;;;;;5055103;28;20156;-80
2021/04/02 07:35:22;;;;;;;15.97;3.50;;;5.60;82.10;;;;;;5054815;28;20224;-80
2021/04/02 07:37:58;;;;;;;24.30;3.77;;;5.60;81.60;;;;;;5037159;28;20708;-80
2021/04/02 07:40:38;;;;;;;17.40;3.50;;;5.70;81.90;;;;;;5055004;28;20266;-80
2021/04/02 07:43:08;;;;;;;19.37;4.13;;;5.80;81.30;;;;;;5054886;28;20188;-81
2021/04/02 07:45:40;;;;;;;16.43;3.53;;;5.80;81.00;;;;;;5055828;28;20172;-80
2021/04/02 07:48:20;;;;;;;19.90;3.57;;;5.80;81.60;;;;;;5055103;28;20243;-81
2021/04/02 07:50:57;;;;;;;21.07;3.40;;;5.90;81.30;;;;;;5036951;28;20199;-80
2021/04/02 07:53:32;;;;;;;19.40;4.07;;;6.00;81.40;;;;;;5055231;28;20164;-79
2021/04/02 07:56:21;;;;;;;26.67;4.23;;;5.90;80.50;;;;;;5055132;28;20268;-80
2021/04/02 07:58:54;;;;;;;21.87;4.10;;;6.00;80.70;;;;;;5055007;28;20156;-79
2021/04/02 08:01:31;;;;;;;21.30;3.33;;;6.10;80.60;;;;;;5054695;28;20187;-80
2021/04/02 08:04:09;;;;;;;13.83;3.00;;;6.20;80.90;;;;;;5036568;28;20210;-82
2021/04/02 08:06:43;;;;;;;15.40;3.27;;;6.30;80.10;;;;;;5054793;28;20636;-80
2021/04/02 08:09:18;;;;;;;16.47;4.10;;;6.30;80.00;;;;;;5054724;28;20632;-80
2021/04/02 08:11:58;;;;;;;21.00;3.53;;;6.40;79.20;;;;;;5054208;28;20217;-81
2021/04/02 08:14:32;;;;;;;30.90;3.87;;;6.30;78.90;;;;;;5054401;28;20186;-78
2021/04/02 08:17:07;;;;;;;22.20;3.93;;;6.60;79.30;;;;;;5036303;28;20199;-80
2021/04/02 08:19:41;;;;;;;22.47;4.17;;;6.70;79.50;;;;;;5054022;28;20200;-77
2021/04/02 08:22:12;;;;;;;17.67;3.30;;;6.70;78.50;;;;;;5036403;28;20211;-77
2021/04/02 08:24:41;;;;;;;21.50;4.90;;;6.70;78.00;;;;;;5036431;28;20550;-78
2021/04/02 08:27:09;;;;;;;23.03;3.70;;;6.80;78.70;;;;;;5053792;28;20179;-78
2021/04/02 08:29:37;;;;;;;23.27;3.97;;;6.90;78.50;;;;;;5036021;28;20249;-79
2021/04/02 08:32:08;;;;;;;22.93;3.47;;;6.90;77.30;;;;;;5054058;28;20174;-81
2021/04/02 08:34:43;;;;;;;14.43;2.93;;;7.10;77.10;;;;;;5053655;28;20214;-79
2021/04/02 08:37:19;;;;;;;21.73;3.60;;;7.00;76.50;;;;;;5035565;28;20685;-80
2021/04/02 08:39:50;;;;;;;23.70;4.23;;;7.00;77.30;;;;;;5035455;28;20202;-80
2021/04/02 08:42:29;;;;;;;21.37;4.10;;;7.10;77.40;;;;;;5053700;28;20168;-80
2021/04/02 08:45:10;;;;;;;24.83;3.83;;;6.90;76.50;;;;;;5035413;28;20200;-79
2021/04/02 08:47:48;;;;;;;17.03;3.37;;;6.70;76.00;;;;;;5053849;28;20177;-82
2021/04/02 08:50:16;;;;;;;18.97;3.67;;;6.80;77.10;;;;;;5053837;28;20190;-80
2021/04/02 08:52:47;;;;;;;18.83;3.10;;;7.00;76.70;;;;;;5054310;28;20177;-79
2021/04/02 08:55:15;;;;;;;11.37;3.43;;;7.00;75.40;;;;;;5054058;28;20180;-80
2021/04/02 08:57:51;;;;;;;22.93;4.67;;;6.90;75.40;;;;;;5036266;28;20177;-80
2021/04/02 09:00:28;;;;;;;19.50;3.77;;;7.10;76.10;;;;;;5035741;28;20218;-80
2021/04/02 09:02:55;;;;;;;20.97;3.87;;;7.20;74.20;;;;;;5036294;28;20174;-79
2021/04/02 09:05:29;;;;;;;14.83;4.33;;;7.20;74.00;;;;;;5054490;28;20224;-80
2021/04/02 09:08:03;;;;;;;17.23;3.57;;;7.20;74.50;;;;;;5036349;28;20240;-78
2021/04/02 09:10:36;;;;;;;21.07;4.43;;;7.10;74.80;;;;;;5053887;28;20638;-80
2021/04/02 09:13:12;;;;;;;15.67;3.57;;;7.20;75.60;;;;;;5036193;28;20186;-79
2021/04/02 09:15:50;;;;;;;16.57;4.40;;;7.20;74.20;;;;;;5053927;28;20197;-78
2021/04/02 09:18:30;;;;;;;16.10;4.43;;;7.00;74.10;;;;;;5054008;28;20515;-78
2021/04/02 09:21:02;;;;;;;18.70;3.93;;;7.00;74.50;;;;;;5053808;28;20214;-79
2021/04/02 09:23:28;;;;;;;18.40;4.10;;;7.00;74.80;;;;;;5053325;28;20228;-80
2021/04/02 09:26:04;;;;;;;9.93;3.80;;;7.10;74.80;;;;;;5035637;28;20236;-81
2021/04/02 09:28:40;;;;;;;18.57;4.27;;;7.00;74.80;;;;;;5053733;28;20189;-80
2021/04/02 09:31:20;;;;;;;16.80;3.60;;;7.00;74.70;;;;;;5035273;28;20211;-80
2021/04/02 09:34:01;;;;;;;13.93;3.87;;;6.90;74.10;;;;;;5035400;28;20185;-80
2021/04/02 09:36:35;;;;;;;22.27;4.10;;;7.00;74.30;;;;;;5035187;28;20213;-83
2021/04/02 09:39:17;;;;;;;15.13;4.63;;;7.00;75.00;;;;;;5053156;28;20709;-80
2021/04/02 09:41:54;;;;;;;19.77;3.73;;;7.00;75.60;;;;;;5053128;28;20178;-79
2021/04/02 09:44:26;;;;;;;16.40;3.47;;;7.00;75.10;;;;;;5035427;28;20173;-80
2021/04/02 09:47:07;;;;;;;24.03;4.10;;;6.90;75.30;;;;;;5076457;23;20607;-81
2021/04/02 09:49:43;;;;;;;17.77;4.67;;;6.90;75.70;;;;;;5052736;28;20171;-81
2021/04/02 09:52:12;;;;;;;16.97;4.20;;;6.90;75.30;;;;;;5052650;28;20260;-81
2021/04/02 09:54:50;;;;;;;24.00;4.43;;;7.00;76.50;;;;;;5034802;28;20175;-81
2021/04/02 09:57:24;;;;;;;15.97;3.73;;;6.90;75.80;;;;;;5053449;28;20199;-81
2021/04/02 09:59:59;;;;;;;18.37;4.10;;;6.80;76.30;;;;;;5038290;28;20177;-81
2021/04/02 10:02:34;;;;;;;16.97;4.03;;;6.90;76.50;;;;;;5056338;28;20768;-81
2021/04/02 10:05:10;;;;;;;22.33;4.03;;;6.80;76.50;;;;;;5056175;28;20256;-81
2021/04/02 10:07:36;;;;;;;18.13;3.80;;;6.80;76.50;;;;;;5038535;28;20209;-82
2021/04/02 10:10:03;;;;;;;19.50;4.10;;;6.80;76.30;;;;;;5056685;28;20651;-81
2021/04/02 10:12:29;;;;;;;24.90;4.77;;;6.90;76.80;;;;;;5056223;28;20567;-81
2021/04/02 10:14:57;;;;;;;18.13;4.03;;;6.80;76.90;;;;;;5056234;28;20166;-82
2021/04/02 10:17:27;;;;;;;13.33;3.13;;;6.80;77.40;;;;;;5056170;28;20230;-81
2021/04/02 10:19:54;;;;;;;14.27;3.80;;;6.90;77.40;;;;;;5056096;28;20166;-81
2021/04/02 10:22:21;;;;;;;16.50;3.50;;;6.90;77.30;;;;;;5055934;28;20187;-81
2021/04/02 10:24:53;;;;;;;25.83;3.70;;;7.00;76.40;;;;;;5055988;28;20660;-82
2021/04/02 10:27:21;;;;;;;21.90;4.10;;;7.00;76.50;;;;;;5056217;28;20178;-81
2021/04/02 10:29:47;;;;;;;18.70;3.53;;;7.00;76.30;;;;;;5056347;28;20266;-81
2021/04/02 10:32:13;;;;;;;17.83;3.57;;;6.90;76.80;;;;;;5056010;28;20180;-81
2021/04/02 10:34:40;;;;;;;19.13;3.47;;;7.00;76.30;;;;;;5056049;28;20172;-82
2021/04/02 10:37:07;;;;;;;15.03;3.93;;;7.10;75.90;;;;;;5055773;28;20206;-81
2021/04/02 10:39:36;;;;;;;20.00;3.97;;;7.20;76.10;;;;;;5055889;28;20637;-82
2021/04/02 10:42:03;;;;;;;16.60;3.73;;;7.30;76.40;;;;;;5056576;28;20172;-82
2021/04/02 10:44:30;;;;;;;15.13;3.97;;;7.30;76.50;;;;;;5038000;28;20645;-82
2021/04/02 10:46:56;;;;;;;12.30;3.50;;;7.40;76.00;;;;;;5055955;28;20222;-81
2021/04/02 10:49:26;;;;;;;15.37;3.53;;;7.40;74.70;;;;;;5056020;28;20232;-82
2021/04/02 10:52:01;;;;;;;13.53;3.10;;;7.20;73.90;;;;;;5055498;28;20253;-82
2021/04/02 10:54:36;;;;;;;22.97;5.20;;;7.30;74.80;;;;;;5055398;28;20171;-81
2021/04/02 10:57:12;;;;;;;17.23;3.73;;;7.30;74.70;;;;;;5055047;28;20259;-81
2021/04/02 10:59:48;;;;;;;13.53;3.33;;;7.40;75.30;;;;;;5055109;28;20174;-81
2021/04/02 11:02:23;;;;;;;14.57;3.53;;;7.50;74.60;;;;;;5037772;28;20608;-81
2021/04/02 11:04:49;;;;;;;18.47;3.73;;;7.50;73.80;;;;;;5037892;28;20588;-81
2021/04/02 11:07:20;;;;;;;18.53;3.40;;;7.50;73.00;;;;;;5054972;28;20259;-81
2021/04/02 11:09:51;;;;;;;12.77;3.00;;;7.50;73.00;;;;;;5054731;28;20186;-81
2021/04/02 11:12:29;;;;;;;14.93;3.23;;;7.40;73.40;;;;;;5055099;28;20639;-81
2021/04/02 11:14:55;;;;;;;18.40;3.17;;;7.40;73.80;;;;;;5054819;28;20706;-81
2021/04/02 11:17:31;;;;;;;13.07;3.00;;;7.60;73.30;;;;;;5055161;28;20248;-81
2021/04/02 11:20:02;;;;;;;17.70;3.90;;;7.60;73.00;;;;;;5036851;28;20733;-81
2021/04/02 11:22:34;;;;;;;14.73;3.17;;;7.50;72.90;;;;;;5036988;28;20210;-81
2021/04/02 11:25:08;;;;;;;16.20;3.43;;;7.50;73.50;;;;;;5054693;28;20180;-81
2021/04/02 11:27:42;;;;;;;13.50;2.97;;;7.50;72.70;;;;;;5054882;28;20182;-81
2021/04/02 11:30:20;;;;;;;15.80;3.70;;;7.50;72.40;;;;;;5054775;28;20167;-81
2021/04/02 11:32:52;;;;;;;21.53;4.37;;;7.40;73.20;;;;;;5054857;28;20180;-80
2021/04/02 11:35:23;;;;;;;14.07;3.07;;;7.40;73.90;;;;;;5037304;28;20198;-80
2021/04/02 11:37:52;;;;;;;13.67;3.03;;;7.50;74.70;;;;;;5054983;28;20267;-80
2021/04/02 11:40:20;;;;;;;20.53;3.23;;;7.50;74.40;;;;;;5037167;28;20594;-80
2021/04/02 11:42:50;;;;;;;19.27;3.70;;;7.30;74.10;;;;;;5055487;28;20181;-81
2021/04/02 11:45:23;;;;;;;22.20;3.13;;;7.50;74.70;;;;;;5054887;28;20613;-81
2021/04/02 11:47:57;;;;;;;24.27;3.93;;;7.50;75.00;;;;;;5036771;28;20647;-81
2021/04/02 11:50:27;;;;;;;18.40;3.70;;;7.70;74.80;;;;;;5054825;28;20171;-81
2021/04/02 11:52:53;;;;;;;18.80;2.97;;;8.00;74.90;;;;;;5055279;28;20587;-80
2021/04/02 11:55:19;;;;;;;17.03;3.43;;;8.00;74.70;;;;;;5054455;28;20194;-81
2021/04/02 11:57:47;;;;;;;11.10;2.93;;;8.00;74.20;;;;;;5036577;28;20278;-82
2021/04/02 12:00:18;;;;;;;12.93;2.53;;;8.00;75.80;;;;;;5036718;28;20179;-80
2021/04/02 12:02:46;;;;;;;13.60;2.30;;;7.80;77.00;;;;;;5054471;28;20190;-81
2021/04/02 12:05:20;;;;;;;11.67;2.90;;;7.40;78.20;;;;;;5054484;28;20189;-81
2021/04/02 12:07:50;;;;;;;13.67;3.40;;;7.30;79.20;;;;;;5036208;28;20182;-81
2021/04/02 12:10:23;;;;;;;14.43;3.17;;;7.40;79.60;;;;;;5054142;28;20236;-81
2021/04/02 12:12:51;;;;;;;8.37;2.43;;;7.40;79.50;;;;;;5036086;28;20181;-81
2021/04/02 12:15:17;;;;;;;15.37;2.60;;;7.30;80.30;;;;;;5054102;28;20280;-81
2021/04/02 12:17:47;;;;;;;16.37;3.70;;;7.20;80.80;;;;;;5053979;28;20202;-81
2021/04/02 12:20:19;;;;;;;18.40;3.40;;;7.30;80.80;;;;;;5035513;28;20535;-81
2021/04/02 12:22:50;;;;;;;14.73;3.57;;;7.30;81.00;;;;;;5035890;28;20647;-81
2021/04/02 12:25:24;;;;;;;14.00;3.40;;;7.20;80.90;;;;;;5053785;28;20252;-81
2021/04/02 12:28:00;;;;;;;25.07;4.33;;;7.30;80.40;;;;;;5053757;28;20620;-81
2021/04/02 12:30:32;;;;;;;22.83;3.70;;;7.30;80.20;;;;;;5035884;28;20593;-81
2021/04/02 12:33:04;;;;;;;18.57;3.30;;;7.30;79.90;;;;;;5053556;28;20645;-81
2021/04/02 12:35:36;;;;;;;20.70;3.20;;;7.30;80.80;;;;;;5053492;28;20206;-81
2021/04/02 12:38:08;;;;;;;19.40;3.87;;;7.40;80.80;;;;;;5053367;28;20181;-81
2021/04/02 12:40:43;;;;;;;15.43;4.00;;;7.40;80.40;;;;;;5035523;28;20258;-81
2021/04/02 12:43:19;;;;;;;12.77;2.80;;;7.40;79.60;;;;;;5053494;28;20190;-83
2021/04/02 12:45:53;;;;;;;8.97;2.80;;;7.40;80.00;;;;;;5053218;28;20619;-84
2021/04/02 12:48:21;;;;;;;11.80;2.57;;;7.30;79.20;;;;;;5053240;28;20247;-83
2021/04/02 12:50:50;;;;;;;13.57;2.50;;;7.10;80.10;;;;;;5035336;28;20186;-83
2021/04/02 12:53:23;;;;;;;19.60;2.77;;;7.10;80.90;;;;;;5053314;28;20239;-78
2021/04/02 12:55:51;;;;;;;14.77;2.80;;;7.30;81.20;;;;;;5035227;28;20211;-80
2021/04/02 12:58:20;;;;;;;11.33;1.93;;;7.30;80.60;;;;;;5035131;28;20210;-79
2021/04/02 13:00:50;;;;;;;18.60;3.27;;;7.30;80.20;;;;;;5053149;28;20181;-80
2021/04/02 13:03:24;;;;;;;12.30;2.73;;;7.40;81.00;;;;;;5053373;28;20178;-81
2021/04/02 13:05:54;;;;;;;13.73;3.67;;;7.30;81.60;;;;;;5053046;28;20201;-80
2021/04/02 13:08:29;;;;;;;23.40;3.67;;;7.30;81.80;;;;;;5052945;28;20229;-80
2021/04/02 13:11:01;;;;;;;12.00;2.57;;;7.60;82.20;;;;;;5053025;28;20579;-82
2021/04/02 13:13:34;;;;;;;12.07;3.07;;;7.80;82.00;;;;;;5052959;28;20185;-82
2021/04/02 13:16:07;;;;;;;9.97;2.80;;;7.80;81.40;;;;;;5034970;28;20298;-80
2021/04/02 13:18:37;;;;;;;9.17;2.63;;;7.70;81.00;;;;;;5034946;28;20185;-82